Ironman Germany 2013 – Predictions

This is an updated version of the start list in my 2013 Summer Rating Report (you can download your free copy here). If you want to make your own predictions on the Frankfurt race, check out IM-Betting.com for a chance to win some cool prizes!

Update June 4th: Minutes after posting my predictions, Rebekah Keat had to withdraw (see witsup.com article). Erika Csomor and Diana Riesler are also no longer on the start list.

Previous Year’s TOP 3

Male Race Results

Rank Name Nation Swim Bike Run Time
1 Marino Vanhoenacker BEL 00:45:07 04:26:26 02:48:19 08:03:31
2 Sebastian Kienle GER 00:48:58 04:25:28 02:51:38 08:09:55
3 Clemente Alonso-McKernan ESP 00:44:22 04:40:07 02:45:10 08:14:04

Female Race Results

Rank Name Nation Swim Bike Run Time
1 Caroline Steffen SUI 00:48:58 04:52:34 03:06:52 08:52:33
2 Anja Beranek GER 00:48:39 04:54:50 03:18:06 09:05:41
3 Corinne Abraham GBR 00:56:06 05:12:28 03:08:14 09:21:03

Course Records

Leg Gender Record Athlete Date
Total overall 07:59:15 Timo Bracht 2009-07-05
Swim overall 00:44:15 Stephane Poulat 2012-07-08
Bike overall 04:20:34 Andreas Raelert 2010-07-04
Run overall 02:45:10 Clemente Alonso-McKernan 2012-07-08
Total female 08:51:24 Chrissie Wellington 2008-07-06
Swim female 00:45:04 Amanda Stevens 2012-07-08
Bike female 04:51:07 Caroline Steffen 2011-07-24
Run female 03:00:14 Sandra Wallenhorst 2010-07-04

Course Rating

The Course Rating for IM Germany is 13:05.

Race Adjustments for IM Germany

Year Adjustment Swim Adj. Bike Adj. Run Adj. # of Athletes Rating Swim Rating Bike Rating Run Rating
2005 -02:54 n/a n/a n/a 5 -02:54 n/a n/a n/a
2006 11:54 n/a n/a n/a 18 04:30 n/a n/a n/a
2007 22:19 01:49 13:06 06:58 22 10:26 01:49 13:06 06:58
2008 25:44 n/a n/a n/a 26 14:16 01:49 13:06 06:58
2009 22:17 n/a n/a n/a 17 15:52 01:49 13:06 06:58
2010 08:51 00:45 03:46 00:50 29 14:42 01:17 08:26 03:54
2011 06:30 01:27 05:08 00:29 37 13:32 01:20 07:20 02:45
2012 09:58 03:37 04:41 02:25 33 13:05 01:55 06:40 02:40

KPR points and Price Money

IM Germany has 4000 KPR points for the winner. It has a total price purse of 125k$.

Male Race Participants

Rank Name Nation Expected Time Rating Rank Swim Rating Bike Rating Run Rating
1 Marino Vanhoenacker BEL 08:04:53 08:16:55 3 00:48:47 04:32:38 02:51:52
2 Eneko Llanos ESP 08:07:45 08:19:51 4 00:47:37 04:37:26 02:51:06
3 Ivan Rana ESP 08:07:45 08:19:51 4 00:46:30 04:43:53 02:44:38
4 Sebastian Kienle GER 08:07:47 08:19:53 5 00:51:48 04:29:57 02:55:48
5 David Dellow AUS 08:11:32 08:23:44 8 00:46:48 04:39:35 02:56:07
6 Bas Diederen NDL 08:17:56 08:30:18 16 00:47:09 04:46:30 02:53:56
7 Maxim Kriat UKR 08:20:33 08:32:59 23 00:51:09 04:44:02 02:55:42
8 Pete Jacobs AUS 08:20:55 08:33:21 26 00:47:08 04:45:00 02:57:43
9 Cyril Viennot FRA 08:22:58 08:35:27 30 00:50:58 04:44:47 02:57:08
10 Jan Raphael GER 08:23:54 08:36:25 34 00:48:12 04:45:27 03:00:14
11 Paul Amey GBR 08:27:37 08:40:13 43 00:49:50 04:44:50 03:03:24
12 Michael Goehner GER 08:27:40 08:40:16 44 00:53:08 04:42:12 03:00:25
13 Per Bittner GER 08:27:53 08:40:29 46 00:49:05 04:48:11 03:00:38
14 Andi Boecherer GER 08:28:52 08:41:30 52 00:47:36 04:38:06 03:12:43
15 Stephan Vuckovic GER 08:29:18 08:41:57 55 00:49:50 04:50:55 02:57:24
16 Uwe Widmann GER 08:32:21 08:45:04 68 00:49:05 04:42:02 03:09:42
17 Anton Blokhin UKR 08:32:58 08:45:42 70 00:48:37 04:49:59 03:03:55
18 Christian Ritter GER 08:35:21 08:48:09 82 00:47:43 04:45:18 03:06:51
19 Bert Jammaer BEL 08:35:38 08:48:26 86 00:49:34 04:46:50 03:06:32
20 Michael Raelert GER 08:35:59 08:48:48 87 00:46:59 04:56:36 03:04:25
21 Pedro Gomes POR 08:37:12 08:50:02 95 00:53:16 04:53:57 03:10:59
22 Stanislav Krylov RUS 08:37:36 08:50:27 100 00:47:05 04:47:38 03:10:49
23 Axel Zeebroek BEL 08:37:39 08:50:30 100 00:47:22 04:45:36 03:13:59
24 Nicolas Hemet FRA 08:39:36 08:52:30 105 00:55:14 04:48:16 03:09:10
25 Swen Sundberg GER 08:41:08 08:54:04 114 00:52:08 04:44:13 03:17:13
26 Alejandro Santamaria ESP 08:41:24 08:54:21 115 00:54:43 04:54:33 03:02:10
27 Fraser Cartmell GBR 08:42:03 08:55:01 119 00:47:55 04:43:29 03:16:39
28 Daniel Halksworth GBR 08:42:48 08:55:47 124 00:47:39 04:52:46 03:08:50
29 Georg Swoboda AUT 08:43:44 08:56:44 130 00:56:10 04:38:54 03:16:17
30 Sylvain Rota FRA 08:44:30 08:57:31 134 00:51:00 04:40:27 03:18:52
31 Andrey Lyatskiy RUS 08:49:32 09:02:41 167 00:48:30 04:59:20 03:13:02
32 Mike Schifferle SUI 08:51:26 09:04:38 180 01:00:44 04:51:57 03:07:04
33 Reto Stutz SUI 08:53:04 09:06:18 183 00:57:10 04:40:53 03:21:28
34 Dominik Berger AUT 08:53:12 09:06:26 183 00:48:35 04:53:10 03:23:45
35 Xavier Diepart BEL 08:54:03 09:07:18 195 00:57:12 04:57:26 03:06:41
36 Raul Furtado BRA 08:55:27 09:08:44 198 00:52:40 04:48:47 03:23:25
37 Thomas Hellriegel GER 08:56:29 09:09:48 209 00:51:20 04:40:42 03:29:21
38 Karol Dzalaj SVK 08:58:14 09:11:36 220 00:53:16 04:52:42 03:20:00
39 Rinalds Sluckis LAT 09:04:24 09:17:55 259 00:55:28 04:55:50 03:22:50
40 Paul Hawkins GBR 09:06:28 09:20:02 275 00:58:31 05:28:52 03:20:25
41 Jürgen Babitsch AUT 09:06:32 09:20:06 278 01:03:46 05:03:55 03:07:45
42 Jarda Brynda CZE 09:07:18 09:20:53 284 00:51:46 05:07:02 03:19:40
43 Moises Vidal Gil ESP 09:10:10 09:23:49 299 00:55:59 05:11:32 03:11:04
44 Marc-Andre Hages GER 09:15:19 09:29:06 324 00:54:19 05:09:17 03:21:53
45 Manuel Wyss SWI 09:25:10 09:39:12 382 00:52:52 05:07:10 03:32:19
46 Joni Pinosto FIN 09:25:57 09:40:00 387 00:56:57 05:04:26 03:29:29
47 Alfred Rahm GER 09:29:26 09:43:34 415 01:00:25 05:11:02 03:25:05
48 Martin Cain GBR 09:32:50 09:47:03 434 00:57:00 05:10:41 03:30:27
49 Ludovic Le Guellec FRA 09:34:47 09:49:03 444 00:58:31 05:16:28 03:28:32
50 Stefano Paoli ITA 09:35:26 09:49:43 452 00:53:42 05:03:11 03:49:10
51 Ivan Kharin RUS 10:12:43 10:27:56 615 01:09:34 05:10:36 03:30:23
52 Remmert Wielinga NED 10:13:31 10:28:45 617 01:34:04 04:35:53 04:11:00
53 Harry Wiltshire GBR 10:17:51 10:33:11 619 00:47:51 05:07:18 04:33:11
54 Nicolai Baumann GER 10:42:51 10:58:48 668 01:00:49 05:26:54 04:24:20
55 Josef Svoboda CZE 11:16:39 11:33:27 687 01:13:10 05:48:35 04:22:01
Yves Moubayed GER n/a unrated n/a unrated unrated unrated
Victor Debil-Caux FRA n/a unrated n/a unrated unrated unrated
Henrik Oftedal NOR n/a unrated n/a unrated unrated unrated
Pascal Richter GER n/a unrated n/a unrated unrated unrated
Daniel Unger GER n/a unrated n/a unrated unrated unrated
Stefan Eichheimer GER n/a unrated n/a unrated unrated unrated
Christian Kemp AUS n/a unrated n/a unrated unrated unrated
Mathias Nagel GER n/a unrated n/a unrated unrated unrated
Louys Michael BEL n/a unrated n/a unrated unrated unrated

Female Race Participants

Rank Name Nation Expected Time Rating Swim Rating Bike Rating Run Rating Rank
1 Jodie Swallow GBR 09:09:08 09:22:46 00:48:16 04:55:29 03:39:19 9
2 Rebekah Keat AUS 09:11:04 09:24:45 00:52:37 05:12:20 03:15:10 11
3 Camilla Pedersen DEN 09:11:59 09:25:41 00:50:50 05:08:42 03:26:56 12
4 Anja Beranek GER 09:13:46 09:27:31 00:51:39 05:10:09 03:22:45 16
5 Erika Csomor HUN 09:16:09 09:29:57 00:57:50 05:15:07 03:11:50 19
6 Daniela Saemmler GER 09:18:39 09:32:31 00:55:01 05:11:06 03:21:23 23
7 Elizabeth Lyles USA 09:24:19 09:38:19 01:00:32 05:26:20 03:07:10 35
8 Mirjam Weerd NLD 09:25:00 09:39:01 00:53:38 05:11:08 03:29:26 37
9 Kristin Moeller GER 09:25:02 09:39:04 01:03:45 05:23:37 03:07:46 38
10 Diana Riesler GER 09:25:46 09:39:49 01:00:04 05:08:55 03:22:41 41
11 Lucie Reed CZE 09:26:04 09:40:07 00:50:05 05:17:34 03:29:12 42
12 Mareen Hufe GER 09:27:29 09:41:34 01:02:04 05:09:25 03:26:29 47
13 Sofie Goos BEL 09:29:50 09:43:59 00:55:47 05:21:55 03:21:44 54
14 Eva Nystrom Swe 09:32:39 09:46:52 01:03:25 05:14:13 03:27:46 65
15 Keiko Tanaka JAP 09:34:44 09:49:00 00:54:22 05:26:56 03:22:22 69
16 Regula Rohrbach SUI 09:35:13 09:49:30 00:57:24 05:11:23 03:35:00 73
17 Silvia Felt GER 09:38:18 09:52:39 01:02:24 05:16:37 03:31:08 80
18 Simone Braendli SWI 09:39:41 09:54:04 00:51:32 05:16:30 03:33:30 85
19 Monique Grossrieder SWI 09:40:03 09:54:27 01:04:54 05:23:40 03:25:36 86
20 Charisa Wernick USA 09:40:09 09:54:33 01:00:00 05:30:29 03:22:07 86
21 Kristin Lie NOR 09:48:49 10:03:26 01:11:50 05:17:31 03:28:48 111
22 Nina Pekerman ISR 09:53:33 10:08:17 00:58:38 05:30:42 03:34:09 126
23 Amber Ferreira USA 10:04:31 10:19:31 00:55:43 05:32:13 03:30:08 161
24 Julia Bohn GER 10:04:53 10:19:54 01:01:32 05:28:50 03:42:56 163
25 Nicole Woysch GER 10:06:04 10:21:07 00:58:41 05:32:48 03:44:51 169
26 Joanna Carritt GBR 10:06:43 10:21:47 01:03:37 05:31:11 03:39:47 171
27 Carla Van Rooijen NED 10:08:12 10:23:18 01:12:48 05:36:38 03:29:31 176
28 Leslie Lamacchia USA 10:23:13 10:38:41 01:08:27 05:35:19 03:47:34 201
29 Megumi Shigaki JPN 10:35:48 10:51:35 00:58:26 05:43:58 04:02:48 220
Natascha Schmitt GER n/a unrated unrated unrated unrated n/a
Kristy Hallett AUS n/a unrated unrated unrated unrated n/a
Susan Blatt GER n/a unrated unrated unrated unrated n/a
Maria Lemeseva RUS n/a unrated unrated unrated unrated n/a

Winning Odds

Male Race Participants

  • Marino Vanhoenacker: 48% (1-1)
  • Pete Jacobs: 22% (4-1)
  • Eneko Llanos: 15% (6-1)
  • David Dellow: 5% (20-1)
  • Sebastian Kienle: 4% (25-1)
  • Ivan Rana: 2% (50-1)
  • Paul Amey: 2% (55-1)

Female Race Participants

  • Anja Beranek: 27% (3-1)
  • Rebekah Keat: 19% (4-1)
  • Erika Csomor: 17% (5-1)
  • Kristin Moeller: 11% (8-1)
  • Lucie Reed: 7% (12-1)
  • Mirjam Weerd: 5% (20-1)
  • Jodie Swallow: 4% (23-1)
  • Camilla Pedersen: 3% (32-1)
  • Diana Riesler: 3% (37-1)
  • Simone Braendli: 2% (60-1)

Results for Marino Vanhoenacker (BEL)

Race Date Swim Bike Run Total Adjusted Rating Rank in Race
IM Germany 2012-07-08 00:45:07 04:26:26 02:48:19 08:03:31 08:12:26 08:16:55 1
IM Austria 2011-07-03 00:46:49 04:15:37 02:39:24 07:45:58 08:07:40 08:17:56 1
IM Hawaii 2010-10-09 00:51:33 04:31:00 02:46:46 08:13:14 08:12:48 08:20:02 3
IM Austria 2010-07-04 00:47:49 04:18:30 02:42:03 07:52:05 08:01:32 08:21:28 1
IM Austria 2009-07-05 00:47:36 04:20:13 02:50:14 08:01:38 08:15:19 08:25:58 1
IM South Africa 2009-04-05 00:47:48 04:25:08 03:01:31 08:17:32 08:31:35 08:28:09 1
IM Hawaii 2008-10-11 00:54:41 04:46:20 03:08:22 08:53:14 08:46:08 08:27:20 21
IM Austria 2008-07-13 00:48:42 04:28:53 02:45:12 08:06:11 08:22:02 08:22:31 1
IM Hawaii 2007-10-13 00:53:21 04:33:06 02:53:00 08:23:31 08:21:30 08:22:40 5
IM Austria 2007-07-08 00:48:30 04:21:13 02:53:30 08:06:39 08:15:27 08:23:04 1
IM Hawaii 2006-10-21 00:54:04 04:29:13 02:56:59 08:24:17 08:19:43 08:26:33 6
IM Austria 2006-07-16 00:47:59 04:27:08 02:49:24 08:07:59 08:21:52 08:30:36 1
IM Florida 2005-11-05 00:50:05 04:35:34 02:59:22 08:28:26 08:41:15 08:41:15 1

Results for Eneko Llanos (ESP)

Race Date Swim Bike Run Total Adjusted Rating Rank in Race
IM Melbourne 2012-03-24 00:47:26 04:27:44 02:43:46 08:02:23 08:09:17 08:19:51 4
IM Arizona 2011-11-19 00:48:47 04:20:54 02:46:09 07:59:38 08:11:39 08:21:26 1
IM Texas 2011-05-21 00:49:28 04:25:56 02:49:04 08:08:20 08:16:43 08:22:57 1
IM Hawaii 2010-10-09 00:51:38 04:39:23 02:47:03 08:22:02 08:21:35 08:23:56 7
Challenge Roth 2010-07-18 00:47:01 04:24:26 02:48:01 08:02:33 08:15:11 08:24:17 3
IM Lanzarote 2010-05-22 00:47:49 04:53:26 02:50:21 08:37:43 08:31:03 08:25:47 1
IM Hawaii 2009-10-10 00:51:06 04:37:17 03:05:03 08:37:55 08:26:17 08:24:48 14
IM Germany 2009-07-05 08:00:21 08:20:11 08:24:31 2
IM Hawaii 2008-10-11 00:51:39 04:33:27 02:51:49 08:20:50 08:14:10 08:25:25 2
IM Germany 2008-07-06 08:00:49 08:23:43 08:27:42 2
IM Hawaii 2007-10-13 00:51:47 04:38:12 02:51:43 08:26:00 08:23:59 08:28:37 7
Challenge Roth 2007-06-24 00:46:25 04:28:06 02:48:28 08:06:06 08:25:58 08:29:40 2
IM Lanzarote 2007-05-20 00:49:18 04:53:18 03:01:33 08:49:39 08:37:59 08:30:39 1
IM Hawaii 2006-10-21 00:53:45 04:29:26 02:55:00 08:22:28 08:17:55 08:28:06 5
IM Austria 2006-07-16 00:45:39 04:33:59 02:51:21 08:15:11 08:29:17 08:32:21 3
IM Western Australia 2005-11-27 00:50:38 04:46:10 02:54:53 08:31:41 08:33:29 08:34:18 2
IM Germany 2005-07-11 08:38:00 08:35:13 08:35:13 4

Results for Ivan Rana (ESP)

Race Date Swim Bike Run Total Adjusted Rating Rank in Race
IM Cozumel 2012-11-25 00:50:27 04:37:16 02:44:05 08:15:07 08:19:51 08:19:51 1

Results for Sebastian Kienle (GER)

Race Date Swim Bike Run Total Adjusted Rating Rank in Race
IM Hawaii 2012-10-13 00:55:21 04:33:23 02:54:24 08:27:08 08:17:19 08:19:53 4
IM Germany 2012-07-08 00:48:58 04:25:28 02:51:38 08:09:55 08:18:57 08:20:46 2
IM Arizona 2011-11-19 00:53:45 04:26:38 02:55:19 08:19:29 08:32:00 08:21:37 6
Challenge Roth 2011-07-10 00:49:58 04:12:46 02:52:02 07:57:06 08:17:37 08:15:03 2
Challenge Roth 2010-07-18 00:52:15 04:14:07 02:50:17 07:59:06 08:11:39 08:11:39 2

Results for David Dellow (AUS)

Race Date Swim Bike Run Total Adjusted Rating Rank in Race
IM Hawaii 2012-10-13 00:51:33 04:40:27 02:59:02 08:35:02 08:25:04 08:23:44 9
IM Cairns 2012-06-02 00:47:56 04:33:45 02:48:26 08:15:04 08:17:47 08:23:12 1
IM Melbourne 2012-03-24 00:47:24 04:28:09 02:45:05 08:04:19 08:11:14 08:26:23 5
IM Cairns 2011-06-05 00:46:02 04:41:54 03:10:22 08:41:39 08:45:28 08:45:28 6

Results for Bas Diederen (NDL)

Race Date Swim Bike Run Total Adjusted Rating Rank in Race
IM South Africa 2013-04-14 00:49:27 04:38:15 02:48:48 08:20:09 08:25:20 08:30:18 3
IM Cozumel 2012-11-25 00:50:17 04:37:39 02:51:57 08:22:55 08:27:43 08:33:08 2
Challenge Barcelona 2012-09-30 00:48:03 04:35:05 02:54:35 08:20:07 08:38:47 08:38:47 1

Results for Maxim Kriat (UKR)

Race Date Swim Bike Run Total Adjusted Rating Rank in Race
IM New York 2012-08-11 00:41:04 04:35:55 03:04:15 08:24:32 08:31:10 08:32:59 2
IM Florida 2011-11-05 00:51:10 04:29:30 02:44:35 08:10:43 08:29:52 08:34:27 2
IM Florida 2009-11-07 04:37:12 02:53:56 08:26:51 08:42:34 08:42:34 2

Results for Pete Jacobs (AUS)

Race Date Swim Bike Run Total Adjusted Rating Rank in Race
IM Hawaii 2012-10-13 00:51:28 04:35:15 02:48:05 08:18:37 08:08:58 08:33:21 1
IM Lake Placid 2012-07-22 00:47:10 05:02:35 03:02:42 08:56:49 08:57:59 08:36:52 2
IM Hawaii 2011-10-15 00:51:38 04:31:01 02:42:29 08:09:11 08:09:09 08:33:35 2
IM Australia 2011-05-01 08:29:28 08:33:24 08:37:03 1
IM Western Australia 2010-12-05 00:47:36 04:38:05 02:52:42 08:21:16 08:26:55 08:37:35 3
IM Hawaii 2010-10-09 00:51:15 04:47:05 02:41:06 08:23:26 08:22:59 08:39:08 9
Challenge Roth 2010-07-18 00:46:51 04:25:42 02:53:43 08:08:56 08:21:44 08:41:44 4
IM Hawaii 2009-10-10 00:50:03 04:38:41 02:57:14 08:30:15 08:18:47 08:45:18 8
Challenge Roth 2009-07-12 00:45:57 04:23:47 02:49:13 08:02:01 08:21:36 08:49:44 2
IM Australia 2009-04-05 00:47:51 04:49:23 02:51:49 08:29:03 08:31:32 08:54:54 2
IM Hawaii 2008-10-11 00:48:43 05:11:07 03:50:40 09:56:02 09:48:06 08:59:42 59
Challenge Roth 2008-07-13 00:46:06 04:33:18 02:50:53 08:12:53 08:30:32 08:49:10 2
IM New Zealand 2008-03-01 00:45:25 04:55:30 02:59:54 08:47:03 08:52:39 08:53:54 5
IM Western Australia 2007-12-01 00:44:42 04:48:22 05:18:53 10:51:57 11:21:01 08:54:17 30
IM Korea 2007-08-26 00:53:34 05:12:34 03:56:25 10:07:57 09:16:58 08:54:17 10
Challenge Roth 2007-06-24 00:46:12 04:34:31 02:44:26 08:09:18 08:29:18 08:46:29 3
IM Hawaii 2006-10-21 00:53:35 04:40:45 02:59:41 08:38:12 08:33:30 08:54:49 17
IM Western Australia 2005-11-27 00:50:45 05:05:30 03:32:20 09:28:35 09:30:35 09:09:03 17
IM Wisconsin 2005-09-11 00:48:31 04:52:30 03:20:12 09:06:47 08:46:10 08:46:10 2

Results for Cyril Viennot (FRA)

Race Date Swim Bike Run Total Adjusted Rating Rank in Race
IM South Africa 2013-04-14 00:52:18 04:35:17 02:48:35 08:19:51 08:25:01 08:35:27 2
IM Hawaii 2012-10-13 00:55:23 04:48:25 03:00:51 08:48:45 08:38:31 08:38:07 18
IM South Africa 2012-04-22 00:59:54 04:43:59 02:54:07 08:41:48 08:28:38 08:38:00 2
IM Hawaii 2011-10-15 00:55:58 04:44:49 02:51:56 08:37:00 08:36:58 08:41:05 15
IM Switzerland 2011-07-10 00:55:37 04:52:01 02:46:34 08:36:02 08:44:54 08:42:43 4
IM South Africa 2011-04-10 00:51:05 04:30:15 03:05:20 08:30:42 08:40:49 08:41:27 5
Challenge Barcelona 2010-10-03 00:52:11 04:30:23 03:02:03 08:28:23 08:42:11 08:42:11 7

Results for Jan Raphael (GER)

Race Date Swim Bike Run Total Adjusted Rating Rank in Race
IM Texas 2013-05-18 00:50:17 04:33:34 03:13:25 08:42:34 08:50:28 08:36:25 6
IM Florida 2012-11-03 00:50:36 04:23:35 02:49:53 08:08:49 08:23:31 08:34:21 2
IM Sweden 2012-08-18 00:48:32 04:26:32 02:45:44 08:04:01 08:29:44 08:35:55 1
IM Germany 2012-07-08 00:44:21 04:37:56 02:52:02 08:18:17 08:27:29 08:36:53 5
IM Hawaii 2011-10-15 00:53:50 04:42:31 03:08:09 08:48:44 08:48:42 08:38:34 25
IM Germany 2011-07-24 00:48:12 04:38:12 02:49:48 08:19:31 08:25:32 08:36:51 2
IM Texas 2011-05-21 00:49:20 04:26:48 03:01:06 08:20:41 08:29:16 08:39:00 4
IM Germany 2010-07-04 00:47:57 04:33:50 02:54:25 08:19:27 08:27:38 08:41:08 5
IM South Africa 2010-04-25 00:50:00 04:45:51 03:03:02 08:42:46 08:47:48 08:43:54 6
IM Hawaii 2009-10-10 00:51:06 04:57:38 03:04:53 08:58:06 08:46:00 08:42:58 27
IM New Zealand 2009-03-07 00:47:55 04:43:54 02:56:16 08:32:32 08:39:45 08:42:10 4
IM Arizona 2008-11-23 00:46:15 04:38:07 02:50:58 08:23:03 08:32:32 08:42:51 5
IM Germany 2008-07-06 08:12:57 08:36:26 08:46:29 6
IM Hawaii 2007-10-13 00:51:34 04:51:25 03:28:55 09:16:15 09:14:02 08:51:07 39
IM Germany 2007-07-01 00:46:32 04:32:28 02:56:47 08:19:29 08:40:07 08:37:30 4
IM Florida 2006-11-04 00:50:28 04:34:08 02:54:12 08:22:44 08:34:21 08:34:21 1

Results for Paul Amey (GBR)

Race Date Swim Bike Run Total Adjusted Rating Rank in Race
IM Texas 2013-05-18 00:54:54 04:29:07 02:56:18 08:25:06 08:32:44 08:40:13 1
IM Arizona 2012-11-18 00:48:47 04:23:48 03:33:10 08:49:54 09:00:35 08:42:25 21
IM France 2012-06-24 00:48:46 04:55:50 02:52:15 08:42:48 08:44:35 08:36:13 2
IM Arizona 2011-11-19 00:48:47 04:22:37 02:45:55 08:01:29 08:13:33 08:32:35 2
IM France 2011-06-26 00:51:30 04:55:41 02:54:57 08:47:04 08:47:35 08:43:37 4
IM Arizona 2008-11-23 00:50:23 04:46:16 02:46:53 08:27:20 08:36:54 08:39:22 7
IM Hawaii 2008-10-11 00:51:45 04:56:53 02:56:02 08:48:58 08:41:56 08:41:56 16

Results for Michael Goehner (GER)

Race Date Swim Bike Run Total Adjusted Rating Rank in Race
IM Wisconsin 2012-09-09 00:54:50 04:48:56 03:04:25 08:54:53 08:50:37 08:40:16 3
IM Austria 2012-07-01 00:57:03 04:30:07 03:10:42 08:42:42 08:49:26 08:38:19 8
IM Hawaii 2011-10-15 00:57:17 04:36:55 03:01:04 08:39:38 08:39:36 08:35:55 18
IM Germany 2011-07-24 00:50:08 04:38:28 02:47:55 08:20:26 08:26:28 08:35:08 3
Challenge Roth 2010-07-18 00:52:20 04:29:33 02:48:11 08:13:09 08:26:04 08:37:18 5
Challenge Roth 2009-07-12 00:50:30 04:21:25 02:41:17 07:55:53 08:15:13 08:39:53 1
IM South Africa 2009-04-05 00:52:41 04:36:47 02:59:13 08:32:01 08:46:28 08:45:01 2
IM Louisville 2008-08-27 00:59:26 04:37:44 03:22:17 09:04:26 08:55:31 08:44:41 4
IM Germany 2008-07-06 08:22:51 08:46:48 08:41:58 10
IM Hawaii 2007-10-13 00:58:19 04:39:21 03:01:08 08:43:55 08:41:49 08:40:26 18
IM Germany 2007-07-01 00:50:35 04:29:09 02:48:32 08:11:50 08:32:09 08:39:57 2
IM Hawaii 2006-10-21 00:59:56 04:43:04 03:06:36 08:53:47 08:48:57 08:43:36 32
IM Germany 2006-07-23 08:30:28 08:41:43 08:40:17 5
Challenge Roth 2005-06-24 00:53:18 04:30:51 02:54:40 08:21:34 08:38:19 08:38:19 5

Results for Per Bittner (GER)

Race Date Swim Bike Run Total Adjusted Rating Rank in Race
Challenge Barcelona 2012-09-30 00:49:37 04:33:49 02:57:16 08:22:47 08:41:33 08:40:29 3
Challenge Roth 2012-07-08 00:47:27 04:44:39 02:48:17 08:22:51 08:34:39 08:40:02 9
Challenge Barcelona 2011-10-02 00:49:14 04:37:24 02:48:53 08:18:53 08:27:43 08:43:30 2
IM Germany 2011-07-24 00:48:13 04:38:45 03:21:58 08:53:44 09:00:10 09:00:10 14

Results for Andi Boecherer (GER)

Race Date Swim Bike Run Total Adjusted Rating Rank in Race
IM Hawaii 2012-10-13 00:51:27 04:43:17 03:12:25 08:51:57 08:41:40 08:41:30 21
IM Sweden 2012-08-18 00:48:15 04:26:37 02:56:55 08:15:26 08:41:46 08:41:27 6
IM Hawaii 2011-10-15 00:51:49 04:25:45 03:01:43 08:23:19 08:23:17 08:41:22 8
IM South Africa 2011-04-10 00:47:42 04:21:19 02:55:57 08:08:36 08:18:17 08:46:30 2
IM Hawaii 2010-10-09 00:51:37 04:32:36 03:55:44 09:24:34 09:24:04 08:55:37 51
IM Regensburg 2010-08-01 00:46:17 04:23:15 03:05:28 08:18:28 08:31:02 08:44:33 2
IM Canada 2009-08-30 00:48:16 04:38:50 03:23:20 08:53:37 08:57:39 08:52:26 6
IM Germany 2008-07-06 08:13:33 08:37:04 08:48:13 7
IM Lanzarote 2007-05-20 00:49:09 05:07:26 03:13:27 09:15:54 09:03:39 09:03:39 5

Results for Stephan Vuckovic (GER)

Race Date Swim Bike Run Total Adjusted Rating Rank in Race
IM Arizona 2012-11-18 00:52:41 04:43:44 07:44:49 13:26:08 13:42:24 08:41:57 37
IM Germany 2012-07-08 00:46:55 04:40:36 02:59:32 08:31:37 08:41:03 08:41:57 7
IM Germany 2011-07-24 00:48:07 04:37:57 02:56:07 08:26:03 08:32:09 08:42:11 5
IM Canada 2010-08-29 00:49:01 04:48:00 02:57:44 08:38:31 08:46:20 08:44:49 3
IM Hawaii 2009-10-10 00:52:50 04:56:31 02:58:13 08:51:35 08:39:38 08:44:26 20
IM Lanzarote 2009-05-23 00:50:30 05:11:16 02:49:21 08:57:17 08:48:18 08:45:35 2
Challenge Roth 2008-07-13 00:48:42 04:50:08 02:49:16 08:31:33 08:49:53 08:44:50 9
IM Florida 2007-11-03 00:50:38 04:35:14 02:51:56 08:21:29 08:39:37 08:43:26 1
IM Lanzarote 2007-05-20 00:49:23 05:13:37 02:56:04 09:04:13 08:52:14 08:44:34 3
IM Hawaii 2006-10-21 00:53:54 04:37:41 02:58:35 08:34:26 08:29:46 08:41:53 14
IM Germany 2006-07-23 08:58:38 09:10:31 08:46:57 9
IM Hawaii 2005-10-15 00:52:11 04:36:56 02:56:39 08:29:35 08:26:33 08:31:58 10
IM Canada 2005-08-29 00:49:18 04:48:01 02:55:27 08:36:34 08:37:36 08:37:36 2

Results for Uwe Widmann (GER)

Race Date Swim Bike Run Total Adjusted Rating Rank in Race
IM Germany 2012-07-08 00:46:28 04:40:29 03:05:57 08:37:40 08:47:13 08:45:04 8
IM Germany 2011-07-24 00:48:05 04:38:11 03:15:56 08:46:33 08:52:53 08:44:31 12
IM South Africa 2011-04-10 00:49:01 04:30:09 03:10:09 08:33:39 08:43:50 08:42:27 7
IM Germany 2010-07-04 00:47:46 04:34:03 03:05:36 08:31:28 08:39:51 08:42:03 6
IM Florida 2008-11-01 00:51:16 04:30:26 02:59:56 08:25:34 08:45:32 08:42:43 5
IM Germany 2008-07-06 08:20:23 08:44:13 08:42:03 9
IM Western Australia 2007-12-01 00:48:28 04:27:32 03:02:54 08:18:54 08:41:09 08:41:28 6
IM Germany 2007-07-01 00:48:11 04:31:34 03:06:02 08:29:37 08:50:41 08:41:33 8
IM Hawaii 2006-10-21 00:54:37 04:36:23 03:07:00 08:42:24 08:37:40 08:38:15 21
IM Germany 2006-07-23 08:26:03 08:37:12 08:38:30 4
IM Hawaii 2005-10-15 00:52:19 04:33:37 03:07:42 08:37:57 08:34:52 08:39:20 15
IM Germany 2005-07-11 08:47:00 08:44:10 08:44:10 7

Results for Anton Blokhin (UKR)

Race Date Swim Bike Run Total Adjusted Rating Rank in Race
IM Cozumel 2012-11-25 00:52:10 04:35:59 02:55:19 08:26:38 08:31:28 08:45:42 4
Challenge Barcelona 2012-09-30 00:49:39 04:37:06 02:57:13 08:26:22 08:45:16 08:48:45 6
IM Sweden 2012-08-18 00:48:40 04:30:54 02:50:41 08:13:56 08:40:11 08:49:40 5
IM Coeur d’Alene 2012-06-24 00:51:28 04:53:11 03:12:05 08:59:49 08:59:59 08:52:49 5
Challenge Barcelona 2011-10-02 00:48:42 04:32:55 03:07:51 08:32:29 08:41:33 08:49:28 6
IM Austria 2011-07-03 00:46:43 04:43:54 02:55:33 08:30:57 08:54:44 08:54:19 7
IM Austria 2010-07-04 00:48:00 04:44:58 03:05:43 08:43:17 08:53:45 08:53:45 10

Results for Christian Ritter (GER)

Race Date Swim Bike Run Total Adjusted Rating Rank in Race
IM Arizona 2012-11-18 00:48:31 04:34:40 03:07:54 08:35:08 08:45:32 08:48:09 9
IM Wales 2012-09-16 00:45:07 05:17:36 02:48:26 08:58:49 08:56:51 08:49:00 3
IM Cozumel 2011-11-27 00:45:37 04:22:38 05:42:07 11:04:22 11:17:04 08:45:29 31
Challenge Roth 2011-07-10 00:46:15 04:30:31 02:59:02 08:18:40 08:40:07 08:45:29 5
IM Hawaii 2010-10-09 00:51:30 04:44:36 03:11:28 08:52:13 08:51:44 08:47:59 37
IM Germany 2010-07-04 00:47:31 04:36:50 03:05:09 08:33:06 08:41:30 08:45:43 7
IM Wisconsin 2009-09-13 00:49:17 04:48:50 03:05:53 08:50:34 08:51:03 08:51:03 2

Results for Bert Jammaer (BEL)

Race Date Swim Bike Run Total Adjusted Rating Rank in Race
IM Lanzarote 2013-05-18 00:50:25 05:19:09 02:50:52 09:06:48 08:48:43 08:48:26 5
IM Cozumel 2012-11-25 00:52:08 04:36:04 02:53:18 08:24:51 08:29:40 08:48:24 3
IM New York 2012-08-11 00:41:02 04:36:03 03:14:25 08:34:59 08:41:45 08:51:15 7
IM Lanzarote 2012-05-19 00:49:40 05:06:12 03:02:11 09:04:41 08:47:57 08:52:48 4
IM Canada 2011-08-28 00:50:25 04:46:28 02:58:07 08:42:34 08:44:32 08:53:41 3
IM Germany 2011-07-24 00:47:58 04:38:12 03:01:43 08:32:26 08:38:36 08:55:15 8
IM Hawaii 2010-10-09 00:52:19 04:53:24 03:51:12 09:41:51 09:41:20 08:58:35 54
IM Lanzarote 2010-05-22 00:47:52 04:51:23 02:54:48 08:39:36 08:32:55 08:50:28 2
IM Hawaii 2009-10-10 00:52:49 04:38:06 03:06:07 08:41:13 08:29:30 08:54:04 16
IM Lanzarote 2009-05-23 00:50:30 05:00:18 02:56:51 08:54:03 08:45:07 08:59:09 1
IM Florida 2008-11-01 00:49:27 04:50:54 03:57:41 09:43:19 10:06:21 09:02:21 35
IM Lanzarote 2008-05-24 00:49:39 05:03:29 02:59:16 08:59:40 08:48:27 08:46:56 1
IM Hawaii 2007-10-13 00:51:51 04:39:04 03:01:00 08:35:53 08:33:49 08:46:32 12
IM Lanzarote 2007-05-20 00:49:52 05:04:41 03:04:56 09:05:09 08:53:08 08:50:14 4
IM Hawaii 2006-10-21 00:53:58 04:44:30 03:18:34 09:01:47 08:56:53 08:49:13 39
IM Austria 2006-07-16 00:48:03 04:38:16 02:56:30 08:26:36 08:41:01 08:45:59 6
IM Hawaii 2005-10-15 00:52:13 04:36:56 03:20:02 08:53:16 08:50:05 08:49:10 30
IM Switzerland 2005-07-15 00:48:10 04:50:09 03:11:37 08:51:58 08:48:11 08:48:11 6

Results for Michael Raelert (GER)

Race Date Swim Bike Run Total Adjusted Rating Rank in Race
IM Hawaii 2012-10-13 00:51:37 05:14:41 03:11:20 09:22:02 09:11:10 08:48:48 31
IM Regensburg 2012-06-17 00:45:01 04:35:32 02:54:40 08:18:53 08:24:16 08:24:16 2

Results for Pedro Gomes (POR)

Race Date Swim Bike Run Total Adjusted Rating Rank in Race
IM Texas 2013-05-18 00:53:58 04:30:11 03:39:33 09:08:07 09:16:24 08:50:02 12
IM Hawaii 2012-10-13 00:55:14 04:54:29 03:02:23 08:56:10 08:45:48 08:44:30 26
IM New York 2012-08-11 00:42:37 04:41:05 03:11:01 08:38:40 08:45:29 08:44:14 8
IM Austria 2012-07-01 00:54:05 04:31:58 02:55:52 08:26:31 08:33:03 08:43:54 3
IM Texas 2012-05-19 00:53:31 04:38:48 03:07:54 08:44:53 08:53:19 08:47:29 10
IM Arizona 2011-11-19 00:54:41 04:39:06 03:08:25 08:46:19 08:59:30 08:44:46 23
IM Florida 2010-11-06 00:50:43 04:34:12 02:49:12 08:19:26 08:29:55 08:34:42 2
Challenge Barcelona 2010-10-03 00:49:33 04:27:33 03:05:18 08:25:53 08:39:37 08:39:37 6
IM Cozumel 2009-11-29 01:09:21 06:41:16 06:55:16 15:02:27 15:09:07 15:09:07 19

Results for Stanislav Krylov (RUS)

Race Date Swim Bike Run Total Adjusted Rating Rank in Race
Challenge Barcelona 2012-09-30 00:47:54 04:34:57 03:06:04 08:31:22 08:50:27 08:50:27 9

Results for Axel Zeebroek (BEL)

Race Date Swim Bike Run Total Adjusted Rating Rank in Race
IM Los Cabos 2013-03-17 00:49:33 04:44:56 03:22:37 09:01:18 08:58:09 08:50:30 11
IM Hawaii 2012-10-13 00:51:41 04:42:09 03:07:00 08:45:12 08:35:02 08:49:10 15
IM France 2012-06-24 00:47:24 04:56:43 03:06:52 08:56:43 08:58:32 08:51:44 7
IM St. George 2012-04-29 00:51:22 05:26:52 03:12:53 09:35:33 08:46:45 08:50:23 3
IM Cozumel 2011-11-27 00:45:43 04:30:21 03:23:05 08:54:06 09:04:19 08:51:13 10
IM Hawaii 2011-10-15 00:52:00 04:53:35 03:07:35 08:58:13 08:58:11 08:47:48 28
IM Texas 2011-05-21 00:49:30 04:26:51 03:07:34 08:28:07 08:36:50 08:44:17 6
IM Cozumel 2010-11-28 08:28:52 08:38:03 08:47:30 4
IM UK 2010-08-01 00:43:39 05:08:54 02:52:39 08:49:38 08:47:24 08:53:12 3
IM Arizona 2009-11-22 00:48:11 04:35:23 03:20:57 08:48:14 09:00:17 09:00:17 13

Results for Nicolas Hemet (FRA)

Race Date Swim Bike Run Total Adjusted Rating Rank in Race
IM Arizona 2012-11-18 00:57:16 04:33:42 03:06:45 08:41:58 08:52:30 08:52:30 16

Results for Swen Sundberg (GER)

Race Date Swim Bike Run Total Adjusted Rating Rank in Race
IM Texas 2013-05-18 00:54:12 04:29:56 03:08:22 08:37:30 08:45:19 08:54:04 5
Challenge Roth 2012-07-08 00:50:33 04:43:37 03:47:31 09:24:58 09:38:14 08:56:38 21
IM Florida 2010-11-06 00:50:47 04:33:36 03:04:10 08:33:44 08:44:31 08:44:18 10
IM Switzerland 2010-07-25 08:29:18 08:36:10 08:44:15 2
IM Louisville 2009-08-28 00:53:05 04:43:47 03:02:21 08:43:36 08:45:39 08:46:21 4
Challenge Roth 2009-07-12 00:50:27 04:21:48 02:53:10 08:07:50 08:27:39 08:46:32 8
IM Florida 2008-11-01 00:53:17 04:27:41 03:01:46 08:26:52 08:46:53 08:52:35 6
Challenge Roth 2008-07-13 00:48:58 04:39:46 02:58:55 08:30:47 08:49:05 08:54:37 8
IM Hawaii 2007-10-13 00:55:19 04:45:37 03:11:51 08:57:37 08:55:28 08:57:18 27
IM Coeur d’Alene 2007-06-23 00:57:35 04:59:14 03:14:14 09:14:41 09:16:46 08:58:28 9
IM Arizona 2006-04-09 00:52:52 04:33:26 02:59:51 08:30:07 08:32:36 08:32:36 4

Results for Alejandro Santamaria (ESP)

Race Date Swim Bike Run Total Adjusted Rating Rank in Race
IM Mont Tremblant 2012-08-18 00:57:17 04:52:23 02:52:35 08:46:58 08:57:32 08:54:21 2
IM Germany 2012-07-08 00:50:58 04:49:00 02:54:44 08:38:45 08:48:19 08:53:44 9
IM Melbourne 2012-03-24 00:56:01 04:43:46 02:58:17 08:41:15 08:48:42 08:55:00 17
IM Cozumel 2011-11-27 00:54:12 04:32:57 02:52:00 08:32:50 08:42:38 08:56:42 3
IM France 2011-06-26 00:55:03 05:01:23 03:06:18 09:07:39 09:08:11 09:01:18 8
IM St. George 2011-05-07 09:04:38 08:54:51 08:58:30 7
IM Cozumel 2009-11-29 00:46:43 04:57:36 03:10:03 08:57:04 09:01:02 09:00:51 3
IM Korea 2007-08-26 00:59:52 05:07:44 03:39:07 09:50:52 09:01:19 09:00:43 6
IM Western Australia 2006-12-03 00:53:24 04:41:35 03:06:51 08:41:50 08:56:53 09:00:20 6
IM UK 2006-08-16 00:51:11 04:53:12 03:06:44 08:54:42 09:04:05 09:04:05 4

Results for Fraser Cartmell (GBR)

Race Date Swim Bike Run Total Adjusted Rating Rank in Race
IM UK 2012-07-22 00:48:15 04:59:30 03:15:45 09:07:00 09:02:15 08:55:01 2
IM Arizona 2011-11-19 00:48:44 04:28:00 03:29:03 08:50:14 09:03:31 08:51:23 25
IM Hawaii 2010-10-09 00:51:26 04:39:46 03:12:01 08:47:45 08:47:17 08:42:49 29
IM UK 2010-08-01 00:43:35 05:02:48 02:49:56 08:40:18 08:38:06 08:38:06 1

Results for Daniel Halksworth (GBR)

Race Date Swim Bike Run Total Adjusted Rating Rank in Race
IM Wales 2012-09-16 00:44:07 05:15:50 02:54:59 09:02:13 09:00:14 08:55:47 4
IM UK 2012-07-22 00:47:56 05:00:23 03:03:20 08:55:11 08:50:33 08:53:25 1
IM Regensburg 2012-06-17 00:45:05 04:52:18 03:08:59 08:50:38 08:56:22 08:56:22 6

Results for Georg Swoboda (AUT)

Race Date Swim Bike Run Total Adjusted Rating Rank in Race
IM Austria 2013-06-30 00:50:43 04:24:23 03:06:42 08:27:25 08:49:18 08:56:44 7
IM South Africa 2013-04-14 00:58:03 04:28:55 03:22:11 08:54:11 08:59:43 08:58:41 12
Challenge Barcelona 2012-09-30 00:57:40 04:16:57 03:04:46 08:22:14 08:40:59 08:58:20 2
IM Austria 2012-07-01 01:00:31 04:31:27 03:06:51 08:43:58 08:50:43 09:05:07 10
IM South Africa 2012-04-22 01:07:43 04:59:35 03:31:06 09:42:51 09:28:09 09:13:21 15
Challenge Barcelona 2009-10-04 00:55:17 04:28:46 03:09:53 08:38:56 08:58:48 08:55:55 11
IM Florida 2008-11-01 00:54:57 04:27:26 03:05:17 08:31:57 08:52:10 08:52:10 8

Results for Sylvain Rota (FRA)

Race Date Swim Bike Run Total Adjusted Rating Rank in Race
IM Cozumel 2012-11-25 00:52:36 04:35:03 03:27:32 08:58:45 09:03:54 08:57:31 16
IM Wales 2012-09-16 00:48:12 05:04:16 02:52:42 08:52:43 08:50:47 08:53:56 1
IM South Africa 2012-04-22 01:02:53 04:49:15 03:15:07 09:11:24 08:57:29 08:57:29 8

Results for Andrey Lyatskiy (RUS)

Race Date Swim Bike Run Total Adjusted Rating Rank in Race
IM Brasil 2013-05-26 00:46:32 04:40:47 03:21:47 08:54:55 09:12:38 09:02:41 13
IM Los Cabos 2013-03-17 00:49:47 05:03:30 03:08:33 09:06:13 09:03:02 09:01:27 13
IM Cozumel 2012-11-25 00:52:19 04:52:34 08:48:04 08:53:07 09:01:14 13
IM Hawaii 2012-10-13 00:51:42 05:18:15 03:16:43 09:31:34 09:20:31 09:02:22 35
IM Sweden 2012-08-18 00:48:37 04:30:58 03:00:49 08:24:20 08:51:08 08:59:33 11
IM Germany 2012-07-08 00:46:59 04:47:46 03:02:41 08:41:49 08:51:27 09:01:01 10
IM Brasil 2012-05-27 00:46:08 04:33:01 03:26:07 08:45:16 09:01:48 09:02:58 9
IM South Africa 2012-04-22 01:00:09 05:15:13 03:05:55 09:25:43 09:11:27 09:03:15 11
IM Cozumel 2011-11-27 00:45:41 04:40:25 03:02:35 08:43:05 08:53:05 09:00:40 5
Challenge Barcelona 2011-10-02 00:49:17 04:45:27 03:14:17 08:53:00 09:02:26 09:03:37 15
IM Germany 2011-07-24 00:48:06 05:06:02 03:08:08 09:07:09 09:13:44 09:04:18 20
Challenge Barcelona 2010-10-03 00:49:37 04:35:18 03:09:22 08:38:21 08:52:25 08:52:25 13

Results for Mike Schifferle (SUI)

Race Date Swim Bike Run Total Adjusted Rating Rank in Race
IM Austria 2013-06-30 00:55:06 04:32:49 03:02:50 08:37:18 08:59:36 09:04:38 15
IM France 2013-06-23 01:00:14 04:58:25 02:56:02 09:03:06 09:09:13 09:04:57 8
IM Texas 2013-05-18 01:04:22 04:33:37 03:10:37 08:56:06 09:04:12 09:04:40 9
IM Hawaii 2012-10-13 01:07:58 04:56:08 02:56:09 09:06:47 08:56:12 09:04:42 29
IM New York 2012-08-11 00:45:48 04:45:40 03:06:56 08:45:02 08:51:56 09:05:13 12
IM Switzerland 2012-07-15 01:02:09 04:47:39 02:56:12 08:50:16 08:56:01 09:06:02 6
IM Germany 2012-07-08 00:58:09 04:47:23 02:53:06 08:45:12 08:54:53 09:06:40 12
IM France 2012-06-24 01:00:11 04:57:22 02:58:22 09:07:08 09:08:59 09:07:28 9
IM Regensburg 2012-06-17 01:00:24 04:40:13 02:50:52 08:36:53 08:42:28 09:07:22 3
IM Texas 2012-05-19 01:02:52 04:41:43 03:00:06 08:51:57 09:00:29 09:09:17 12
IM St. George 2012-04-29 01:04:31 06:30:15 03:13:28 10:54:44 09:59:13 09:09:59 9
IM Cozumel 2011-11-27 00:59:39 04:32:12 03:14:40 09:01:18 09:11:39 09:05:43 12
IM Arizona 2011-11-19 00:58:55 04:31:36 03:05:31 08:41:48 08:54:53 09:05:13 20
IM Hawaii 2011-10-15 01:07:05 04:37:31 02:59:09 08:49:01 08:48:59 09:06:09 26
IM Wales 2011-09-11 00:55:32 05:15:27 03:00:47 09:23:55 08:53:12 09:07:48 7
IM Germany 2011-07-24 01:00:30 04:46:31 03:01:18 08:54:20 09:00:46 09:09:19 15
IM Switzerland 2011-07-10 01:01:55 04:48:57 03:00:19 08:53:57 09:03:07 09:10:16 8
IM Brasil 2011-05-29 08:53:07 09:15:39 09:11:08 10
IM South Africa 2011-04-10 01:04:29 04:36:19 03:17:53 09:04:02 09:14:49 09:10:32 14
IM Arizona 2010-11-21 00:59:58 04:31:31 03:11:46 08:47:53 08:59:13 09:09:54 11
IM Florida 2010-11-06 01:00:42 04:45:31 03:13:54 09:09:02 09:20:33 09:11:32 21
IM Wisconsin 2010-09-12 01:02:00 04:44:49 03:05:08 08:58:35 08:58:18 09:09:55 7
IM Regensburg 2010-08-01 01:01:30 04:33:33 03:09:53 08:49:42 09:03:03 09:12:20 8
IM Switzerland 2010-07-25 08:43:51 08:50:55 09:14:40 8
IM Austria 2010-07-04 00:57:29 04:44:36 03:07:35 08:54:57 09:05:39 09:22:36 17
IM Switzerland 2009-07-12 01:04:21 04:40:26 03:05:12 08:54:13 09:06:13 09:30:54 12
IM Lanzarote 2007-05-20 01:00:19 05:17:48 03:34:21 10:00:35 09:47:21 09:45:21 20
IM UK 2006-08-16 00:53:30 05:08:41 03:27:59 09:34:59 09:45:05 09:44:25 14
IM Switzerland 2006-07-02 00:56:29 04:54:43 03:25:29 09:19:56 09:32:19 09:44:01 15
IM Switzerland 2005-07-15 00:57:58 05:12:05 03:50:02 10:03:46 09:59:28 09:59:28 24

Results for Reto Stutz (SUI)

Race Date Swim Bike Run Total Adjusted Rating Rank in Race
IM France 2013-06-23 00:57:04 04:44:18 03:11:10 09:00:13 09:06:18 09:06:18 7

Results for Dominik Berger (AUT)

Race Date Swim Bike Run Total Adjusted Rating Rank in Race
IM Texas 2013-05-18 00:50:17 04:34:37 03:37:04 09:07:31 09:15:48 09:06:26 11
IM South Africa 2013-04-14 00:49:29 04:37:52 03:12:22 08:43:53 08:49:18 09:03:49 7
IM Wisconsin 2012-09-09 00:50:55 04:55:24 03:18:45 09:11:34 09:07:10 09:09:15 10
IM Arizona 2011-11-19 00:48:46 04:44:43 03:23:34 09:02:52 09:16:28 09:10:12 31
IM Austria 2011-07-03 00:46:45 04:46:25 03:07:19 08:45:32 09:10:00 09:06:35 13
IM South Africa 2011-04-10 00:48:57 04:43:33 03:15:20 08:52:24 09:02:57 09:02:57 11

Results for Xavier Diepart (BEL)

Race Date Swim Bike Run Total Adjusted Rating Rank in Race
IM Lanzarote 2013-05-18 00:56:21 05:20:04 02:58:37 09:21:59 09:03:24 09:07:18 7
IM Lanzarote 2012-05-19 00:56:15 05:08:11 03:01:35 09:13:33 08:56:33 09:09:54 8
IM France 2010-06-27 01:00:39 05:02:00 02:58:40 09:06:54 09:17:50 09:23:03 7
IM France 2007-06-24 00:57:46 05:05:09 03:14:03 09:23:37 09:29:18 09:29:59 12
IM UK 2006-08-16 00:51:51 05:09:04 03:15:52 09:21:01 09:30:52 09:30:52 12

Results for Raul Furtado (BRA)

Race Date Swim Bike Run Total Adjusted Rating Rank in Race
IM Sweden 2012-08-18 00:53:20 04:30:45 03:15:56 08:43:54 09:11:44 09:08:44 16
IM Brasil 2012-05-27 00:49:57 04:27:29 03:15:01 08:32:27 08:48:35 09:07:50 6
IM Cozumel 2011-11-27 00:48:52 04:29:15 03:22:48 08:54:39 09:04:52 09:15:16 11
IM Texas 2011-05-21 00:58:27 04:35:08 03:31:16 09:09:39 09:19:05 09:20:30 16
IM Brasil 2009-05-31 00:51:32 04:43:29 03:16:01 08:53:20 09:13:40 09:21:35 5
IM Brasil 2008-05-25 00:59:15 04:29:52 03:21:17 08:55:01 09:03:21 09:27:38 5
IM Brasil 2007-05-27 00:54:44 04:59:09 03:55:06 09:48:59 09:59:58 09:59:58 21

Results for Thomas Hellriegel (GER)

Race Date Swim Bike Run Total Adjusted Rating Rank in Race
IM Hawaii 2010-10-09 00:57:45 04:43:17 03:42:07 09:28:28 09:27:58 09:09:48 53
IM Canada 2009-08-30 00:50:52 04:44:39 03:46:10 09:26:27 09:30:43 09:01:24 20
Challenge Roth 2008-07-13 00:49:00 04:27:31 03:04:26 08:25:19 08:43:25 08:46:33 6
Challenge Roth 2007-06-24 00:49:45 04:16:18 03:01:09 08:10:33 08:30:36 08:48:21 4
IM Lanzarote 2006-05-20 00:46:29 05:15:41 03:07:57 09:15:24 09:08:10 09:01:33 8
IM Hawaii 2005-10-15 00:54:35 04:35:52 03:20:53 08:56:55 08:53:43 08:53:43 35

Results for Karol Dzalaj (SVK)

Race Date Swim Bike Run Total Adjusted Rating Rank in Race
IM South Africa 2013-04-14 00:57:52 04:33:48 03:09:34 08:45:42 08:51:09 09:11:36 9
IM Western Australia 2012-12-09 00:54:05 04:36:03 03:20:35 08:55:11 09:07:49 09:17:20 10
IM Wales 2012-09-16 00:48:17 05:14:42 03:01:01 09:12:21 09:10:20 09:20:35 5
Challenge Barcelona 2011-10-02 00:51:58 04:34:02 03:20:19 08:49:43 08:59:06 09:25:23 13
IM St. George 2010-05-01 00:54:35 05:07:53 03:24:37 09:32:49 09:23:26 09:39:53 12
IM Western Australia 2009-12-05 00:50:12 04:54:45 03:37:45 09:22:43 09:35:33 09:49:26 14
IM Wisconsin 2009-09-13 00:54:01 05:42:32 03:19:11 10:03:42 10:04:15 10:04:15 17

Results for Rinalds Sluckis (LAT)

Race Date Swim Bike Run Total Adjusted Rating Rank in Race
IM Los Cabos 2013-03-17 00:57:49 04:59:06 03:19:57 09:21:11 09:17:55 09:17:55 14

Results for Paul Hawkins (GBR)

Race Date Swim Bike Run Total Adjusted Rating Rank in Race
IM Wales 2012-09-16 00:47:18 05:27:45 03:00:24 09:23:25 09:21:22 09:20:02 10
IM UK 2012-07-22 00:52:39 05:02:38 03:11:18 09:10:50 09:06:03 09:19:29 3
IM UK 2011-07-31 00:48:02 05:14:17 02:57:50 09:03:41 09:12:16 09:28:24 7
IM France 2010-06-27 01:26:28 07:20:24 05:09:34 14:16:23 14:33:30 09:44:33 19
IM UK 2009-08-02 00:57:42 05:14:37 03:10:13 09:28:35 09:30:03 09:44:33 10
IM UK 2008-09-07 00:51:33 05:20:08 03:51:03 10:06:40 10:03:20 11:52:20 12
IM Switzerland 2007-06-24 01:22:10 07:03:42 05:23:34 14:00:55 14:26:36 14:29:43 25
IM France 2006-06-24 01:08:44 07:32:31 05:17:00 14:15:35 14:33:53 14:33:53 23

Results for Jürgen Babitsch (AUT)

Race Date Swim Bike Run Total Adjusted Rating Rank in Race
IM Austria 2013-06-30 00:57:43 04:51:53 03:01:56 08:56:57 09:20:06 09:20:06 25

Results for Jarda Brynda (CZE)

Race Date Swim Bike Run Total Adjusted Rating Rank in Race
IM Germany 2012-07-08 00:48:18 04:54:55 03:14:54 09:02:36 09:12:37 09:20:53 17
IM Regensburg 2012-06-17 00:50:20 05:09:31 03:21:35 09:26:24 09:32:31 09:27:39 9
IM Austria 2007-07-08 00:48:42 04:49:54 03:14:08 08:57:46 09:07:29 09:07:29 13

Results for Moises Vidal Gil (ESP)

Race Date Swim Bike Run Total Adjusted Rating Rank in Race
Challenge Barcelona 2012-09-30 00:56:57 04:57:47 03:06:19 09:03:32 09:23:49 09:23:49 27

Results for Marc-Andre Hages (GER)

Race Date Swim Bike Run Total Adjusted Rating Rank in Race
IM Germany 2011-07-24 00:53:02 05:03:48 03:21:25 09:22:20 09:29:06 09:29:06 22

Results for Manuel Wyss (SWI)

Race Date Swim Bike Run Total Adjusted Rating Rank in Race
IM Arizona 2012-11-18 00:55:53 05:02:19 03:51:14 09:54:23 10:06:22 09:39:12 30
Challenge Roth 2011-07-10 00:49:35 04:45:54 03:06:36 08:45:13 09:07:49 09:23:31 17
Challenge Barcelona 2010-10-03 00:54:00 04:37:47 03:15:37 08:51:48 09:06:14 09:33:34 16
IM Switzerland 2010-07-25 09:54:26 10:02:27 10:02:27 24

Results for Joni Pinosto (FIN)

Race Date Swim Bike Run Total Adjusted Rating Rank in Race
IM Wales 2012-09-16 00:52:30 05:30:47 03:10:42 09:42:07 09:40:00 09:40:00 12

Results for Alfred Rahm (GER)

Race Date Swim Bike Run Total Adjusted Rating Rank in Race
IM Florida 2012-11-03 01:07:07 04:47:58 03:23:53 09:26:33 09:43:35 09:43:34 20
IM France 2011-06-26 01:01:20 05:14:39 03:20:18 09:44:12 09:44:46 09:43:33 14
IM Florida 2008-11-01 00:59:56 04:54:46 03:21:30 09:25:20 09:47:40 09:43:12 30
Challenge Roth 2008-07-13 00:54:30 04:58:29 03:04:12 09:02:12 09:21:37 09:42:27 23
IM Lanzarote 2008-05-24 00:58:55 05:44:24 03:25:07 10:20:00 10:07:07 09:46:10 33
IM Florida 2007-11-03 01:00:43 04:52:00 03:30:01 09:28:12 09:48:45 09:41:50 38
IM France 2007-06-24 00:58:21 05:15:59 03:14:25 09:36:45 09:42:34 09:40:22 16
IM Florida 2006-11-04 01:02:05 05:03:23 03:21:17 09:38:13 09:51:35 09:39:50 27
IM France 2006-06-24 00:51:25 05:09:26 03:10:58 09:19:46 09:31:44 09:36:56 8
IM Lanzarote 2006-05-20 00:55:04 05:44:07 03:43:54 10:30:36 10:22:24 09:38:26 29
IM South Africa 2006-03-18 09:37:33 09:34:41 09:21:27 12
IM Florida 2005-11-05 01:01:22 04:53:14 03:07:25 09:07:55 09:21:43 09:13:46 12
IM Germany 2005-07-11 09:08:00 09:05:03 09:05:03 10

Results for Martin Cain (GBR)

Race Date Swim Bike Run Total Adjusted Rating Rank in Race
IM Lanzarote 2013-05-18 00:59:13 05:52:06 03:15:18 10:16:39 09:56:15 09:47:03 12
IM Wales 2012-09-16 00:51:28 05:30:22 03:27:50 09:58:21 09:56:10 09:41:21 14
IM UK 2012-07-22 00:54:53 05:07:18 03:24:09 09:30:48 09:25:51 09:25:51 5

Results for Ludovic Le Guellec (FRA)

Race Date Swim Bike Run Total Adjusted Rating Rank in Race
IM Austria 2013-06-30 00:52:00 04:59:23 03:18:31 09:15:55 09:39:53 09:49:03 28
IM Switzerland 2012-07-15 01:02:33 05:15:01 03:18:12 09:39:28 09:45:45 09:53:10 18
IM France 2012-06-24 00:59:41 05:25:09 03:34:12 10:05:28 10:07:31 09:57:00 15
IM Lanzarote 2012-05-19 00:57:17 05:35:47 03:22:13 10:04:45 09:46:10 09:46:10 13

Results for Stefano Paoli (ITA)

Race Date Swim Bike Run Total Adjusted Rating Rank in Race
IM Lanzarote 2013-05-18 00:53:59 05:20:58 03:48:17 10:10:42 09:50:30 09:49:43 11
IM Arizona 2011-11-19 00:53:54 04:45:32 03:48:26 09:33:08 09:47:30 09:48:58 39
IM Switzerland 2007-06-24 00:53:32 04:50:47 03:21:12 09:08:13 09:24:58 09:51:24 13
IM France 2005-06-19 00:53:45 05:24:48 04:05:08 10:23:41 10:23:41 10:15:08 15
IM Lanzarote 2005-06-04 00:51:23 05:51:10 03:16:05 10:06:29 10:06:29 10:06:29 20

Results for Ivan Kharin (RUS)

Race Date Swim Bike Run Total Adjusted Rating Rank in Race
IM Austria 2013-06-30 01:03:00 04:52:50 03:17:27 09:20:28 09:44:38 10:27:56 30
Challenge Barcelona 2012-09-30 01:15:12 05:01:03 03:27:37 09:47:23 10:09:18 11:13:18 49
IM Sweden 2012-08-18 01:12:45 04:46:16 05:22:17 11:26:25 12:02:54 11:35:53 22
IM Germany 2012-07-08 01:01:44 05:12:44 03:33:59 09:56:06 10:07:06 11:21:54 22
IM Austria 2012-07-01 01:09:31 04:56:48 06:14:11 12:27:28 12:37:06 12:37:06 24

Results for Remmert Wielinga (NED)

Race Date Swim Bike Run Total Adjusted Rating Rank in Race
IM France 2013-06-23 01:33:55 04:39:14 03:58:11 10:21:45 10:28:45 10:28:45 14

Results for Harry Wiltshire (GBR)

Race Date Swim Bike Run Total Adjusted Rating Rank in Race
IM Wales 2012-09-16 00:44:07 05:33:54 04:08:41 10:35:30 10:33:11 10:33:11 16

Results for Nicolai Baumann (GER)

Race Date Swim Bike Run Total Adjusted Rating Rank in Race
IM Austria 2013-06-30 00:55:03 05:13:57 04:16:09 10:31:34 10:58:48 10:58:48 40

Results for Josef Svoboda (CZE)

Race Date Swim Bike Run Total Adjusted Rating Rank in Race
IM Austria 2013-06-30 01:06:13 05:34:47 04:13:54 11:04:47 11:33:27 11:33:27 42

Results for Yves Moubayed (GER)

Race Date Swim Bike Run Total Adjusted Rating Rank in Race

Results for Victor Debil-Caux (FRA)

Race Date Swim Bike Run Total Adjusted Rating Rank in Race

Results for Henrik Oftedal (NOR)

Race Date Swim Bike Run Total Adjusted Rating Rank in Race

Results for Pascal Richter (GER)

Race Date Swim Bike Run Total Adjusted Rating Rank in Race

Results for Daniel Unger (GER)

Race Date Swim Bike Run Total Adjusted Rating Rank in Race

Results for Stefan Eichheimer (GER)

Race Date Swim Bike Run Total Adjusted Rating Rank in Race

Results for Christian Kemp (AUS)

Race Date Swim Bike Run Total Adjusted Rating Rank in Race

Results for Mathias Nagel (GER)

Race Date Swim Bike Run Total Adjusted Rating Rank in Race

Results for Louys Michael (BEL)

Race Date Swim Bike Run Total Adjusted Rating Rank in Race

Results for Jodie Swallow (GBR)

Race Date Swim Bike Run Total Adjusted Rating Rank in Race
IM South Africa 2013-04-14 00:49:56 04:46:05 03:36:44 09:17:00 09:22:46 09:22:46 2

Results for Rebekah Keat (AUS)

Race Date Swim Bike Run Total Adjusted Rating Rank in Race
IM Western Australia 2012-12-09 00:53:58 05:03:44 03:11:57 09:14:39 09:27:45 09:24:45 2
IM Hawaii 2012-10-13 00:57:44 05:26:53 03:14:05 09:43:43 09:32:25 09:24:25 13
IM New York 2012-08-11 00:41:34 05:11:41 03:15:43 09:13:24 09:20:40 09:23:31 2
IM Melbourne 2012-03-24 00:53:24 05:01:18 03:14:49 09:13:43 09:21:38 09:23:52 6
Challenge Kopenhagen 2011-08-01 00:49:33 04:54:40 03:05:02 08:52:42 09:16:24 09:24:08 1
Challenge Roth 2011-07-10 00:51:27 04:51:05 03:13:51 08:59:22 09:22:34 09:25:00 3
IM Cairns 2011-06-05 00:52:57 05:16:34 03:14:04 09:26:31 09:30:40 09:25:18 1
IM Western Australia 2010-12-05 00:53:33 05:02:00 03:23:22 09:22:37 09:28:57 09:24:34 2
IM Louisville 2010-08-29 00:55:36 05:08:25 03:23:50 09:33:15 09:29:14 09:23:58 1
Challenge Kopenhagen 2010-08-01 00:50:21 04:48:04 03:13:09 08:54:36 09:21:08 09:23:13 1
Challenge Roth 2010-07-18 00:52:14 04:56:44 03:00:06 08:52:10 09:06:06 09:23:34 2
IM Australia 2010-03-28 09:33:10 09:41:55 09:26:54 2
Challenge Wanaka 2010-01-16 09:30:41 09:30:32 09:23:43 2
Challenge Roth 2009-07-12 00:50:21 04:50:10 02:55:28 08:39:24 09:00:30 09:22:00 2
IM Australia 2009-04-05 00:50:55 05:16:03 03:14:35 09:21:33 09:24:17 09:27:57 2
IM Hawaii 2008-10-11 00:56:19 05:26:40 03:28:28 09:56:01 09:48:05 09:29:13 17
Challenge Roth 2008-07-13 00:48:55 05:06:12 03:03:42 09:02:34 09:22:00 09:21:08 5
IM Hawaii 2007-10-13 00:58:13 05:16:03 03:08:17 09:27:19 09:25:03 09:20:33 6
IM Australia 2007-04-08 00:50:26 05:18:26 03:04:07 09:12:59 09:15:19 09:15:19 1

Results for Camilla Pedersen (DEN)

Race Date Swim Bike Run Total Adjusted Rating Rank in Race
Challenge Kopenhagen 2012-08-11 00:48:57 04:59:05 03:21:12 09:12:27 09:25:41 09:25:41 1

Results for Anja Beranek (GER)

Race Date Swim Bike Run Total Adjusted Rating Rank in Race
IM Germany 2012-07-08 00:48:39 04:54:50 03:18:06 09:05:41 09:15:45 09:27:31 2
IM Wales 2011-09-11 00:47:55 05:54:56 03:23:24 10:15:59 09:42:26 09:42:26 2

Results for Erika Csomor (HUN)

Race Date Swim Bike Run Total Adjusted Rating Rank in Race
IM Austria 2013-06-30 00:51:57 04:58:03 03:04:04 08:59:31 09:22:47 09:29:57 1
IM Los Cabos 2013-03-17 09:35:34 09:32:13 09:30:49 1
IM Switzerland 2012-07-15 01:02:12 05:03:47 03:11:37 09:20:16 09:26:20 09:30:39 1
IM Austria 2012-07-01 00:57:01 05:00:11 03:09:55 09:12:09 09:19:16 09:31:09 2
Challenge Barcelona 2011-10-02 00:59:46 05:01:31 03:13:37 09:18:47 09:28:40 09:32:42 3
IM Switzerland 2011-07-10 01:00:23 05:24:31 03:09:59 09:36:59 09:46:53 09:33:10 3
IM Austria 2011-07-03 00:52:06 04:53:59 02:59:53 08:51:10 09:15:54 09:31:29 2
IM Arizona 2010-11-21 01:00:04 05:09:24 03:08:33 09:22:38 09:34:43 09:33:40 6
IM Florida 2010-11-06 01:01:25 05:00:01 03:07:00 09:14:40 09:26:18 09:33:31 2
IM Hawaii 2010-10-09 01:03:46 05:21:36 03:09:48 09:39:53 09:39:22 09:34:37 17
IM France 2010-06-27 01:00:38 05:28:05 03:01:31 09:36:08 09:47:39 09:33:48 2
IM Hawaii 2009-10-10 01:03:12 05:23:01 03:37:26 10:08:25 09:54:44 09:31:08 26
Challenge Roth 2009-07-12 00:53:16 04:54:37 03:08:29 08:59:42 09:21:37 09:26:46 4
IM Hawaii 2008-10-11 00:59:09 05:18:12 03:03:05 09:24:49 09:17:18 09:27:51 4
Challenge Roth 2008-07-13 00:53:37 04:54:10 02:55:54 08:47:05 09:05:58 09:29:58 2
IM Arizona 2008-04-13 00:59:08 05:02:30 03:07:59 09:14:49 09:21:26 09:35:32 1
IM Hawaii 2007-10-13 01:03:18 05:29:10 03:01:25 09:39:47 09:37:28 09:39:24 10
IM Lake Placid 2007-07-22 01:01:24 05:32:34 03:14:07 09:53:44 09:47:13 09:40:00 3
Challenge Roth 2007-06-24 00:57:59 05:03:51 03:03:13 09:09:32 09:32:00 09:37:02 4
Challenge Roth 2006-06-24 01:01:00 05:15:28 03:07:26 09:27:47 09:40:52 09:40:26 4
IM Australia 2006-05-11 01:00:18 05:26:36 03:12:19 09:39:13 09:39:59 09:39:59 4

Results for Daniela Saemmler (GER)

Race Date Swim Bike Run Total Adjusted Rating Rank in Race
Challenge Barcelona 2012-09-30 00:55:58 04:57:22 03:16:23 09:11:55 09:32:31 09:32:31 3

Results for Elizabeth Lyles (USA)

Race Date Swim Bike Run Total Adjusted Rating Rank in Race
IM Cozumel 2012-11-25 01:07:09 05:17:24 03:12:04 09:40:36 09:46:09 09:38:19 9
IM Wisconsin 2012-09-09 01:00:41 05:27:29 02:59:33 09:34:35 09:30:00 09:30:00 1

Results for Mirjam Weerd (NLD)

Race Date Swim Bike Run Total Adjusted Rating Rank in Race
IM Brasil 2013-05-26 00:51:25 04:56:28 03:25:05 09:21:04 09:39:39 09:39:01 4
IM Western Australia 2012-12-09 00:54:02 05:02:14 03:24:12 09:25:48 09:39:09 09:38:54 5
IM Arizona 2012-11-18 00:55:16 04:57:14 03:26:13 09:24:27 09:35:50 09:38:51 5
Challenge Barcelona 2012-09-30 00:56:01 04:46:33 03:22:07 09:07:25 09:27:51 09:39:36 2
Challenge Roth 2012-07-08 00:50:11 04:56:07 03:12:35 09:02:39 09:15:23 09:43:19 5
IM Arizona 2011-11-19 00:53:55 05:01:27 03:44:59 09:45:50 10:00:31 09:55:05 16
IM Wisconsin 2010-09-12 00:55:07 05:27:30 03:22:10 09:52:25 09:52:07 09:52:09 3
IM South Africa 2010-04-25 00:56:20 05:09:56 03:25:10 09:37:24 09:42:57 09:52:10 4
IM Germany 2009-07-05 09:39:50 10:03:46 10:03:46 6

Results for Kristin Moeller (GER)

Race Date Swim Bike Run Total Adjusted Rating Rank in Race
IM Lanzarote 2013-05-18 01:00:03 05:31:47 02:58:37 09:37:34 09:18:28 09:39:04 1
IM Hawaii 2012-10-13 01:16:43 05:23:46 03:06:36 09:51:16 09:39:50 09:43:25 17
IM Germany 2012-07-08 00:58:52 05:30:34 03:09:12 09:43:48 09:54:34 09:44:11 9
IM France 2012-06-24 01:02:47 05:27:58 03:00:29 09:37:07 09:39:05 09:41:35 3
IM Western Australia 2011-12-04 01:09:28 05:28:22 03:25:20 10:07:05 10:10:37 09:42:24 9
IM Wales 2011-09-11 00:56:46 05:53:05 03:02:28 10:01:19 09:28:34 09:31:19 1
IM UK 2011-07-31 00:56:17 05:37:01 02:41:57 09:19:04 09:27:53 09:32:55 1
IM Wisconsin 2010-09-12 01:03:59 05:29:07 03:00:26 09:39:43 09:39:25 09:39:25 2

Results for Diana Riesler (GER)

Race Date Swim Bike Run Total Adjusted Rating Rank in Race
IM South Africa 2012-04-22 01:12:27 05:26:57 03:17:14 10:01:14 09:46:04 09:39:49 3
IM UK 2011-07-31 00:53:24 05:25:57 03:02:28 09:25:41 09:34:36 09:38:14 2
IM Austria 2011-07-03 00:58:20 04:43:50 03:05:41 08:53:34 09:18:25 09:39:10 3
IM South Africa 2011-04-10 01:02:21 04:55:16 03:18:45 09:20:37 09:31:43 09:46:13 3
IM Germany 2010-07-04 01:00:17 04:59:49 03:23:42 09:27:37 09:36:55 09:52:58 4
IM Australia 2010-03-28 09:57:04 10:06:11 10:02:33 4
IM Austria 2009-07-05 00:56:49 05:05:15 03:34:28 09:41:33 09:58:04 09:58:04 7

Results for Lucie Reed (CZE)

Race Date Swim Bike Run Total Adjusted Rating Rank in Race
IM France 2013-06-23 00:51:29 05:33:45 03:26:40 09:57:44 10:04:28 09:40:07 5
IM South Africa 2013-04-14 00:52:17 05:11:31 03:18:59 09:27:07 09:32:59 09:35:13 3
Challenge Roth 2012-07-08 00:47:31 05:05:30 03:30:24 09:26:20 09:39:38 09:35:45 7
IM Germany 2011-07-24 00:47:59 05:06:20 03:15:31 09:13:46 09:20:26 09:34:51 2
IM Brasil 2011-05-29 09:14:23 09:37:49 09:37:56 2
Challenge Barcelona 2010-10-03 00:52:48 04:47:29 03:29:29 09:13:47 09:28:49 09:37:57 1
IM Hawaii 2009-10-10 00:50:58 05:24:21 03:45:06 10:04:42 09:51:06 09:40:26 22
IM Austria 2009-07-05 00:47:32 04:58:05 03:17:25 09:07:24 09:22:57 09:37:42 3
IM South Africa 2009-04-05 00:47:40 04:58:42 03:26:17 09:16:32 09:32:15 09:42:19 1
IM Austria 2008-07-13 00:48:33 05:04:04 03:15:27 09:13:17 09:31:19 09:46:27 5
IM South Africa 2008-04-13 00:50:00 05:07:29 03:34:08 09:34:09 09:46:52 09:54:01 3
Challenge Roth 2006-06-24 00:48:02 05:14:49 03:25:04 09:32:05 09:45:16 10:00:16 5
IM South Africa 2006-03-18 10:19:32 10:16:28 10:16:28 4

Results for Mareen Hufe (GER)

Race Date Swim Bike Run Total Adjusted Rating Rank in Race
IM Los Cabos 2013-03-17 01:04:03 05:09:23 03:21:52 09:40:50 09:37:27 09:41:34 4
IM Cozumel 2012-11-25 01:11:09 04:57:42 03:19:20 09:32:19 09:37:47 09:42:47 7
IM Hawaii 2012-10-13 01:06:25 05:20:44 03:21:01 09:52:58 09:41:30 09:44:39 19
IM Germany 2012-07-08 00:54:23 05:09:43 03:23:06 09:31:32 09:42:05 09:46:25 6
IM Melbourne 2012-03-24 01:06:55 04:53:57 03:37:28 09:42:47 09:51:07 09:51:07 11

Results for Sofie Goos (BEL)

Race Date Swim Bike Run Total Adjusted Rating Rank in Race
IM Los Cabos 2013-03-17 00:56:43 05:26:22 03:20:11 09:48:20 09:44:55 09:43:59 6
IM Hawaii 2012-10-13 01:02:52 05:49:06 03:18:01 10:14:39 10:02:46 09:43:49 25
IM Germany 2012-07-08 00:52:04 05:06:59 03:23:38 09:28:03 09:38:32 09:40:09 5
IM Brasil 2012-05-27 00:52:42 04:59:24 03:25:36 09:17:42 09:35:16 09:40:31 1
IM Florida 2011-11-05 00:56:45 05:04:03 03:16:38 09:22:21 09:44:18 09:41:54 3
IM Texas 2011-05-21 00:55:19 04:55:19 03:17:59 09:12:53 09:22:22 09:41:12 3
IM Cozumel 2010-11-28 09:45:05 09:55:38 09:47:43 4
IM Florida 2009-11-07 04:52:25 03:11:30 09:08:38 09:25:39 09:44:18 1
Challenge Barcelona 2009-10-04 00:59:52 04:51:49 03:12:12 09:08:01 09:29:00 09:53:02 1
IM Lanzarote 2008-05-24 00:58:25 05:55:07 03:28:40 10:30:44 10:17:37 10:13:09 7
IM Switzerland 2007-06-24 01:00:28 05:14:46 03:31:27 09:49:21 10:07:21 10:07:21 6

Results for Eva Nystrom (Swe)

Race Date Swim Bike Run Total Adjusted Rating Rank in Race
IM Florida 2012-11-03 01:07:24 04:50:04 03:23:34 09:26:19 09:43:21 09:46:52 8
IM South Africa 2007-03-18 01:15:00 05:19:27 03:41:02 10:15:31 10:04:39 10:04:39 6

Results for Keiko Tanaka (JAP)

Race Date Swim Bike Run Total Adjusted Rating Rank in Race
IM Austria 2013-06-30 00:49:12 05:13:59 03:16:06 09:24:39 09:49:00 09:49:00 7

Results for Regula Rohrbach (SUI)

Race Date Swim Bike Run Total Adjusted Rating Rank in Race
IM Wales 2012-09-16 00:51:29 05:34:35 03:09:48 09:45:09 09:43:01 09:49:30 1
IM Switzerland 2012-07-15 01:02:11 05:03:25 03:26:23 09:35:10 09:41:24 09:52:08 4
IM Arizona 2011-11-19 00:57:37 05:00:35 03:46:06 09:50:10 10:04:57 09:58:57 18
IM Switzerland 2011-07-10 01:00:27 05:14:29 03:23:45 09:42:18 09:52:18 09:52:18 4

Results for Silvia Felt (GER)

Race Date Swim Bike Run Total Adjusted Rating Rank in Race
IM Brasil 2013-05-26 00:57:58 04:48:10 03:48:52 09:40:03 09:59:16 09:52:39 9
IM Hawaii 2011-10-15 01:12:18 05:44:12 03:30:10 10:31:10 10:31:07 09:49:49 23
IM Germany 2011-07-24 01:00:25 05:05:59 03:15:23 09:26:21 09:33:10 09:34:37 7
IM France 2011-06-26 01:01:27 05:14:06 03:13:18 09:34:31 09:35:04 09:35:22 1
IM South Africa 2011-04-10 01:03:50 05:01:08 03:15:31 09:24:31 09:35:42 09:35:42 4

Results for Simone Braendli (SWI)

Race Date Swim Bike Run Total Adjusted Rating Rank in Race
IM South Africa 2013-04-14 00:54:43 05:00:56 03:31:59 09:32:24 09:38:20 09:54:04 4
IM Hawaii 2012-10-13 00:57:40 05:29:07 03:21:38 09:53:24 09:41:55 09:56:47 20
IM Switzerland 2012-07-15 00:55:27 05:08:00 03:23:53 09:30:58 09:37:09 09:59:24 3
IM South Africa 2012-04-22 01:00:04 05:23:51 03:23:40 09:52:26 09:37:29 10:03:46 2
IM Cozumel 2011-11-27 00:48:57 04:45:20 03:25:10 09:14:08 09:24:43 10:09:40 1
IM Germany 2011-07-24 00:48:12 05:15:22 04:59:47 11:08:53 11:16:56 10:20:54 13
IM South Africa 2011-04-10 00:52:56 05:05:39 03:28:20 09:31:21 09:42:40 10:04:31 7
IM Canada 2010-08-29 00:50:06 05:36:28 04:22:20 10:53:21 11:03:12 10:12:34 16
IM Switzerland 2010-07-25 09:29:44 09:37:25 09:49:55 4
IM Switzerland 2009-07-12 00:52:02 05:18:15 03:19:26 09:32:57 09:45:49 09:59:33 6
IM Switzerland 2008-07-13 10:04:08 10:17:50 10:17:50 7

Results for Monique Grossrieder (SWI)

Race Date Swim Bike Run Total Adjusted Rating Rank in Race
IM South Africa 2013-04-14 01:07:08 05:13:23 03:23:11 09:48:22 09:54:27 09:54:27 7

Results for Charisa Wernick (USA)

Race Date Swim Bike Run Total Adjusted Rating Rank in Race
IM Arizona 2012-11-18 01:01:32 05:05:44 03:18:24 09:30:27 09:41:57 09:54:33 9
IM Wisconsin 2012-09-09 01:00:41 05:29:57 03:05:58 09:43:54 09:39:14 09:56:54 3
IM Texas 2012-05-19 00:59:11 05:07:33 03:16:28 09:27:43 09:36:50 10:00:40 5
IM Arizona 2011-11-19 00:58:51 05:04:34 03:15:09 09:22:37 09:36:43 10:06:26 10
Challenge Henley 2011-09-18 00:57:18 05:34:03 03:12:54 09:48:25 09:46:52 10:20:21 2
IM Cozumel 2010-11-28 10:07:30 10:18:28 10:30:55 7
IM Wisconsin 2010-09-12 01:03:50 05:33:10 03:23:21 10:07:19 10:07:00 10:35:05 5
IM Lake Placid 2010-07-25 01:06:51 05:38:42 03:22:01 10:13:07 10:16:54 10:47:56 8
IM Coeur d’Alene 2008-06-22 01:06:08 05:52:08 03:32:37 10:35:13 10:39:03 11:12:24 10
IM Coeur d’Alene 2007-06-23 01:11:37 06:08:54 03:43:04 11:13:10 11:15:42 11:37:48 3
IM Coeur d’Alene 2006-06-25 01:06:05 06:15:43 04:37:21 12:09:56 12:07:12 12:07:12 22

Results for Kristin Lie (NOR)

Race Date Swim Bike Run Total Adjusted Rating Rank in Race
IM Arizona 2012-11-18 01:17:08 04:58:42 03:26:25 09:47:27 09:59:18 10:03:26 13
IM Florida 2012-11-03 01:16:48 04:46:38 03:24:05 09:33:34 09:50:49 10:04:21 11
IM Wales 2012-09-16 01:03:00 05:53:11 03:10:42 10:16:27 10:14:12 10:08:11 4
IM Austria 2011-07-03 01:07:55 05:00:52 03:15:11 09:31:44 09:58:21 10:05:56 10
Challenge Barcelona 2010-10-03 01:14:19 05:02:45 03:23:36 09:46:25 10:02:20 10:08:40 3
Challenge Roth 2010-07-18 01:10:20 05:11:03 03:26:26 09:41:05 09:56:18 10:11:15 5
IM Florida 2009-11-07 04:57:24 03:37:12 10:01:00 10:19:38 10:20:34 11
IM Wisconsin 2009-09-13 01:15:54 05:27:27 03:29:07 10:20:58 10:21:32 10:21:32 7

Results for Nina Pekerman (ISR)

Race Date Swim Bike Run Total Adjusted Rating Rank in Race
IM Brasil 2013-05-26 00:55:28 05:09:27 03:33:25 09:55:03 10:14:45 10:08:17 12
IM South Africa 2013-04-14 01:04:36 05:15:05 03:33:50 09:59:13 10:05:25 10:06:43 9
IM Arizona 2012-11-18 01:02:13 05:12:54 03:22:37 09:43:50 09:55:37 10:07:07 12
IM New York 2012-08-11 00:45:37 05:28:52 03:42:33 10:01:47 10:09:42 10:11:25 13
IM Germany 2012-07-08 00:52:48 05:25:30 03:31:34 09:55:38 10:06:37 10:12:20 10
IM South Africa 2012-04-22 01:08:29 05:53:14 03:27:46 10:34:24 10:18:24 10:18:24 9

Results for Amber Ferreira (USA)

Race Date Swim Bike Run Total Adjusted Rating Rank in Race
IM Arizona 2012-11-18 00:56:53 05:07:50 03:24:54 09:34:51 09:46:27 10:19:31 11
IM Arizona 2011-11-19 00:55:22 05:19:49 03:21:54 09:42:20 09:56:56 10:35:27 15
IM Lake Placid 2011-07-24 01:00:20 05:44:03 03:35:31 10:30:39 10:32:30 10:57:14 7
IM St. George 2011-05-07 11:36:03 11:23:32 11:23:32 7

Results for Julia Bohn (GER)

Race Date Swim Bike Run Total Adjusted Rating Rank in Race
Challenge Barcelona 2012-09-30 01:05:05 05:07:48 03:28:04 09:43:44 10:05:31 10:19:54 9
Challenge Kopenhagen 2012-08-11 00:57:43 05:09:11 03:24:51 09:36:07 09:49:55 10:22:57 6
Challenge Roth 2012-07-08 00:56:15 05:17:55 03:19:57 09:37:37 09:51:11 10:31:23 11
Challenge Kopenhagen 2011-08-01 00:57:17 05:23:06 03:21:26 09:46:15 10:12:20 10:44:42 6
Challenge Barcelona 2010-10-03 01:04:15 05:12:31 04:00:42 10:22:34 10:39:28 10:55:39 9
IM Regensburg 2010-08-01 00:58:45 05:25:20 03:44:49 10:14:48 10:30:17 11:01:32 8
IM South Africa 2010-04-25 01:05:17 05:33:01 04:33:21 11:21:01 11:27:34 11:18:04 14
IM Germany 2008-07-06 10:38:22 11:08:47 11:08:56 13
IM Germany 2007-07-01 01:04:34 05:24:31 04:07:24 10:42:36 11:09:09 11:09:09 12

Results for Nicole Woysch (GER)

Race Date Swim Bike Run Total Adjusted Rating Rank in Race
IM Austria 2013-06-30 00:51:45 05:20:15 03:58:47 10:19:39 10:46:22 10:21:07 16
IM Lanzarote 2012-05-19 00:56:12 05:50:12 03:41:52 10:37:19 10:17:44 10:15:48 4
Challenge Barcelona 2011-10-02 00:59:29 05:08:52 03:54:53 10:07:27 10:18:12 10:15:27 10
IM Austria 2011-07-03 00:53:37 05:00:34 03:22:21 09:23:31 09:49:45 10:14:58 8
IM Lanzarote 2011-05-21 00:55:37 06:04:31 03:43:50 10:52:01 10:39:20 10:19:57 6
IM Cozumel 2010-11-28 09:49:44 10:00:22 10:15:22 5
IM Hawaii 2010-10-09 01:07:12 05:37:54 04:00:13 10:51:20 10:50:45 10:19:16 40
IM Lanzarote 2010-05-22 00:59:20 05:41:59 03:22:27 10:11:18 10:03:26 10:08:49 2
Challenge Barcelona 2009-10-04 01:03:07 05:17:53 03:23:44 09:50:04 10:12:39 10:11:05 8
IM Austria 2009-07-05 00:58:42 05:06:38 03:17:52 09:29:37 09:45:48 10:10:14 5
IM Lanzarote 2009-05-23 01:01:40 06:21:12 03:15:02 10:46:19 10:35:30 10:35:30 8

Results for Joanna Carritt (GBR)

Race Date Swim Bike Run Total Adjusted Rating Rank in Race
IM South Africa 2013-04-14 01:06:53 05:13:21 03:51:36 10:16:59 10:23:22 10:21:47 11
IM Western Australia 2012-12-09 01:08:44 05:11:48 03:43:41 10:09:14 10:23:37 10:21:34 8
IM Wales 2012-09-16 00:57:38 05:55:01 03:09:12 10:12:34 10:10:20 10:21:17 3
Challenge Roth 2012-07-08 01:00:23 05:17:54 03:42:52 10:04:53 10:19:05 10:22:53 16
IM UK 2011-07-31 00:55:21 05:53:08 03:05:59 09:59:21 10:08:48 10:23:30 4
IM Lanzarote 2011-05-21 00:56:35 06:06:02 03:59:33 11:09:59 10:56:57 10:25:33 7
Challenge Wanaka 2011-01-15 10:57:21 10:21:40 10:20:47 3
IM Western Australia 2010-12-05 01:04:42 05:28:49 03:34:09 10:11:13 10:18:06 10:20:38 6
IM Hawaii 2010-10-09 01:13:01 05:37:58 03:26:48 10:23:05 10:22:32 10:21:06 35
IM UK 2010-08-01 00:58:16 06:03:05 03:09:28 10:16:22 10:13:46 10:20:48 3
IM France 2010-06-27 01:04:27 05:29:45 03:26:15 10:07:44 10:19:53 10:22:34 8
IM Lanzarote 2010-05-22 01:02:31 05:46:52 03:26:34 10:24:30 10:16:27 10:23:26 7
IM Lanzarote 2009-05-23 01:03:57 06:01:55 03:30:45 10:45:32 10:34:44 10:26:38 7
IM Germany 2008-07-06 09:43:19 10:11:06 10:22:23 8
IM Switzerland 2007-06-24 01:04:57 05:14:53 03:34:51 09:57:28 10:15:43 10:30:06 8
IM Lanzarote 2007-05-20 01:07:17 05:57:23 03:45:15 10:59:25 10:44:53 10:44:53 7

Results for Carla Van Rooijen (NED)

Race Date Swim Bike Run Total Adjusted Rating Rank in Race
IM Lanzarote 2012-05-19 01:11:43 05:57:00 03:24:45 10:43:03 10:23:18 10:23:18 7

Results for Leslie Lamacchia (USA)

Race Date Swim Bike Run Total Adjusted Rating Rank in Race
IM Arizona 2012-11-18 01:12:45 05:14:47 03:52:39 10:26:24 10:39:02 10:38:41 21
IM Lake Placid 2012-07-22 01:06:27 05:47:21 03:36:28 10:36:55 10:38:18 10:38:18 6

Results for Megumi Shigaki (JPN)

Race Date Swim Bike Run Total Adjusted Rating Rank in Race
IM New Zealand 2013-03-02 00:58:24 05:44:47 03:47:54 10:40:01 10:44:15 10:51:35 7
IM Western Australia 2012-12-09 00:58:17 05:22:02 03:33:57 09:58:58 10:13:06 10:56:17 7
IM Switzerland 2011-07-10 01:01:47 05:51:20 04:51:46 11:49:02 12:01:13 12:01:13 7

Results for Natascha Schmitt (GER)

Race Date Swim Bike Run Total Adjusted Rating Rank in Race

Results for Kristy Hallett (AUS)

Race Date Swim Bike Run Total Adjusted Rating Rank in Race

Results for Susan Blatt (GER)

Race Date Swim Bike Run Total Adjusted Rating Rank in Race

Results for Maria Lemeseva (RUS)

Race Date Swim Bike Run Total Adjusted Rating Rank in Race
Comments are closed.

Powered by WordPress. Designed by Woo Themes

By continuing to use the site, you agree to the use of cookies. more information

The cookie settings on this website are set to "allow cookies" to give you the best browsing experience possible. If you continue to use this website without changing your cookie settings or you click "Accept" below then you are consenting to this.

Close